CW6881 Weather Reports


Display with metric or nautical units.
time (UTC)temp
F
wind
direction
speed
MPH
gust
MPH
rain 1hr
in
rain 24hr
in
rain mn
in
humidity
%
barometer
mb
20190319193018 77 247 3.0 5.0 0.00 0.00 0.00 27 1016.2
20190319192021 77 247 2.0 5.0 0.00 0.00 0.00 27 1016.3
20190319191021 77 315 2.0 5.0 0.00 0.00 0.00 29 1016.3
20190319190021 76 315 3.0 7.0 0.00 0.00 0.00 29 1016.4
20190319185021 75 315 2.0 7.0 0.00 0.00 0.00 30 1016.5
20190319184021 73 315 2.0 5.0 0.00 0.00 0.00 35 1016.7
20190319183021 72 292 2.0 7.0 0.00 0.00 0.00 33 1016.6
20190319182019 72 315 4.0 7.0 0.00 0.00 0.00 32 1016.7
20190319181022 70 315 4.0 8.0 0.00 0.00 0.00 35 1016.7
20190319180019 69 315 4.0 8.0 0.00 0.00 0.00 37 1016.7
20190319175019 68 337 4.0 6.0 0.00 0.00 0.00 38 1016.8
20190319174019 68 315 4.0 7.0 0.00 0.00 0.00 39 1016.8
20190319173020 68 315 4.0 6.0 0.00 0.00 0.00 40 1016.9
20190319172019 67 315 3.0 5.0 0.00 0.00 0.00 39 1017.0
20190319171019 65 337 3.0 6.0 0.00 0.00 0.00 39 1017.0
20190319170016 63 112 1.0 2.0 0.00 0.00 0.00 31 1017.1
20190319165019 61 157 1.0 4.0 0.00 0.00 0.00 36 1017.1
20190319164019 59 225 2.0 4.0 0.00 0.00 0.00 39 1017.1
20190319163020 58 202 2.0 3.0 0.00 0.00 0.00 42 1017.0
20190319162019 57 135 1.0 2.0 0.00 0.00 0.00 45 1017.0
20190319161019 55 0.0 2.0 0.00 0.00 0.00 49 1016.9
20190319160021 54 337 1.0 4.0 0.00 0.00 0.00 50 1017.0
20190319155016 53 247 1.0 5.0 0.00 0.00 0.00 51 1017.0
20190319154019 51 225 2.0 4.0 0.00 0.00 0.00 54 1016.8
20190319153019 49 292 1.0 4.0 0.00 0.00 0.00 57 1016.8
20190319152019 48 315 1.0 4.0 0.00 0.00 0.00 59 1016.8
20190319151019 46 315 2.0 4.0 0.00 0.00 0.00 59 1016.8
20190319150019 45 225 1.0 3.0 0.00 0.00 0.00 58 1016.6
20190319145021 45 247 1.0 2.0 0.00 0.00 0.00 56 1016.6
20190319144016 44 0.0 1.0 0.00 0.00 0.00 57 1016.7
20190319143019 44 247 1.0 2.0 0.00 0.00 0.00 55 1016.8
20190319142019 45 0.0 2.0 0.00 0.00 0.00 54 1016.9
20190319141019 45 247 1.0 2.0 0.00 0.00 0.00 53 1017.0
20190319140019 45 247 1.0 2.0 0.00 0.00 0.00 51 1017.0
20190319135019 45 270 1.0 3.0 0.00 0.00 0.00 51 1017.0
20190319134019 45 270 1.0 2.0 0.00 0.00 0.00 52 1017.0
20190319133016 43 0.0 1.0 0.00 0.00 0.00 52 1017.1
20190319132019 43 270 1.0 2.0 0.00 0.00 0.00 54 1017.1
20190319131020 44 0.0 1.0 0.00 0.00 0.00 55 1017.3
20190319130019 44 270 1.0 2.0 0.00 0.00 0.00 55 1017.3
20190319125019 44 0.0 2.0 0.00 0.00 0.00 54 1017.4
20190319124019 44 0.0 2.0 0.00 0.00 0.00 55 1017.4
20190319123019 44 202 1.0 2.0 0.00 0.00 0.00 55 1017.5
20190319122016 44 225 1.0 2.0 0.00 0.00 0.00 52 1017.6
20190319121019 44 247 1.0 3.0 0.00 0.00 0.00 54 1017.6
20190319120019 44 270 1.0 2.0 0.00 0.00 0.00 53 1017.7
20190319115019 44 180 1.0 2.0 0.00 0.00 0.00 54 1017.7
20190319114020 44 135 1.0 4.0 0.00 0.00 0.00 55 1017.7
20190319113019 44 112 1.0 4.0 0.00 0.00 0.00 55 1017.8
20190319112105 44 90 1.0 4.0 0.00 0.00 0.00 56 1017.8
20190319111516 44 0.0 2.0 0.00 0.00 0.00 56 1017.9
20190319110516 44 90 1.0 5.0 0.00 0.00 0.00 55 1018.0
20190319105519 44 90 1.0 6.0 0.00 0.00 0.00 55 1018.0
20190319104519 45 157 1.0 2.0 0.00 0.00 0.00 53 1018.0
20190319103519 45 135 1.0 1.0 0.00 0.00 0.00 52 1018.1
20190319102519 45 135 1.0 2.0 0.00 0.00 0.00 53 1018.2
20190319101519 45 135 1.0 2.0 0.00 0.00 0.00 53 1018.4
20190319100516 45 0.0 1.0 0.00 0.00 0.00 52 1018.4
20190319095516 46 0.0 2.0 0.00 0.00 0.00 52 1018.4
20190319094519 46 0.0 1.0 0.00 0.00 0.00 52 1018.4
20190319093519 46 112 1.0 4.0 0.00 0.00 0.00 52 1018.4
20190319092519 47 292 1.0 4.0 0.00 0.00 0.00 50 1018.4
20190319091519 47 270 1.0 1.0 0.00 0.00 0.00 48 1018.5
20190319090519 48 270 1.0 2.0 0.00 0.00 0.00 47 1018.5
20190319085516 48 270 1.0 2.0 0.00 0.00 0.00 47 1018.5
20190319084516 49 0.0 1.0 0.00 0.00 0.00 46 1018.4
20190319083519 49 270 1.0 4.0 0.00 0.00 0.00 43 1018.5
20190319082519 49 315 1.0 4.0 0.00 0.00 0.00 44 1018.5
20190319081519 49 315 2.0 4.0 0.00 0.00 0.00 45 1018.5
20190319080519 49 22 1.0 2.0 0.00 0.00 0.00 43 1018.6
20190319075520 49 0.0 2.0 0.00 0.00 0.00 43 1018.6
20190319074516 50 22 1.0 2.0 0.00 0.00 0.00 42 1018.5
20190319073516 51 22 1.0 2.0 0.00 0.00 0.00 41 1018.5
20190319072519 53 292 2.0 4.0 0.00 0.00 0.00 38 1018.4
20190319071519 54 225 1.0 2.0 0.00 0.00 0.00 36 1018.3
20190319070521 55 135 1.0 3.0 0.00 0.00 0.00 34 1018.3
20190319065519 55 135 1.0 2.0 0.00 0.00 0.00 32 1018.1
20190319064519 56 0.0 3.0 0.00 0.00 0.00 33 1018.2
20190319063516 57 112 1.0 2.0 0.00 0.00 0.00 31 1018.1
20190319062516 57 180 2.0 4.0 0.00 0.00 0.00 31 1018.1
20190319061519 57 112 1.0 4.0 0.00 0.00 0.00 30 1018.1
20190319060519 58 135 1.0 4.0 0.00 0.00 0.00 30 1018.1
20190319055519 58 67 1.0 2.0 0.00 0.00 0.00 30 1018.0
20190319054519 59 90 2.0 6.0 0.00 0.00 0.00 30 1018.1
20190319053519 60 90 2.0 5.0 0.00 0.00 0.00 29 1018.0
20190319052516 60 112 2.0 5.0 0.00 0.00 0.00 28 1018.1
20190319051516 61 90 3.0 8.0 0.00 0.00 0.00 28 1017.9
20190319050520 61 90 3.0 11.0 0.00 0.00 0.00 27 1018.0
20190319045519 62 90 4.0 10.0 0.00 0.00 0.00 27 1017.9
20190319044519 62 90 6.0 13.0 0.00 0.00 0.00 26 1017.9
20190319043519 62 112 6.0 13.0 0.00 0.00 0.00 26 1017.9
20190319042519 62 90 7.0 15.0 0.00 0.00 0.00 27 1017.8
20190319041516 62 112 5.0 12.0 0.00 0.00 0.00 27 1017.9
20190319040520 62 90 5.0 19.0 0.00 0.00 0.00 27 1017.8
20190319035519 62 90 5.0 14.0 0.00 0.00 0.00 27 1017.7
20190319034519 62 90 5.0 14.0 0.00 0.00 0.00 28 1017.6
20190319033519 63 90 6.0 16.0 0.00 0.00 0.00 27 1017.5
20190319032519 64 90 7.0 19.0 0.00 0.00 0.00 26 1017.5
20190319031519 64 112 9.0 22.0 0.00 0.00 0.00 25 1017.4
20190319030516 64 90 8.0 18.0 0.00 0.00 0.00 25 1017.3
20190319025519 65 90 6.0 15.0 0.00 0.00 0.00 24 1017.3
20190319024519 65 90 7.0 16.0 0.00 0.00 0.00 25 1017.1
20190319023519 65 90 8.0 16.0 0.00 0.00 0.00 25 1017.2
20190319022519 65 90 6.0 18.0 0.00 0.00 0.00 25 1017.2
20190319021519 65 90 6.0 13.0 0.00 0.00 0.00 26 1017.2
20190319020520 66 90 7.0 13.0 0.00 0.00 0.00 26 1017.2
20190319015516 67 90 5.0 13.0 0.00 0.00 0.00 25 1017.3
20190319014519 67 90 7.0 18.0 0.00 0.00 0.00 25 1017.4
20190319013520 68 90 7.0 18.0 0.00 0.00 0.00 24 1017.4
20190319012519 69 90 8.0 20.0 0.00 0.00 0.00 22 1017.4
20190319011519 70 90 8.0 22.0 0.00 0.00 0.00 23 1017.4
20190319010520 70 90 5.0 16.0 0.00 0.00 0.00 22 1017.6
20190319005519 71 90 9.0 20.0 0.00 0.00 0.00 22 1017.8
20190319004516 72 67 7.0 17.0 0.00 0.00 0.00 22 1017.7
20190319003519 72 90 4.0 13.0 0.00 0.00 0.00 21 1017.7
20190319002520 72 90 7.0 14.0 0.00 0.00 0.00 21 1017.8
20190319001519 72 67 6.0 13.0 0.00 0.00 0.00 21 1017.8
20190319000519 73 67 7.0 15.0 0.00 0.00 0.00 21 1017.8
20190318235519 73 90 8.0 15.0 0.00 0.00 0.00 21 1017.9
20190318234519 73 67 8.0 20.0 0.00 0.00 0.00 21 1018.0
20190318233516 73 67 7.0 18.0 0.00 0.00 0.00 21 1018.1
20190318232520 73 22 1.0 4.0 0.00 0.00 0.00 28 1018.2
20190318231519 74 315 3.0 8.0 0.00 0.00 0.00 28 1018.4
20190318230519 74 337 4.0 8.0 0.00 0.00 0.00 31 1018.4
20190318225519 74 337 3.0 9.0 0.00 0.00 0.00 32 1018.5
20190318224520 74 337 4.0 11.0 0.00 0.00 0.00 31 1018.6
20190318223516 74 0 2.0 6.0 0.00 0.00 0.00 31 1018.7
20190318222516 75 0 2.0 6.0 0.00 0.00 0.00 32 1018.8
20190318221519 75 337 4.0 11.0 0.00 0.00 0.00 33 1018.8
20190318220519 75 337 4.0 9.0 0.00 0.00 0.00 33 1018.9
20190318215520 75 337 3.0 14.0 0.00 0.00 0.00 34 1018.9
20190318214519 75 315 7.0 12.0 0.00 0.00 0.00 33 1018.9
20190318213519 75 315 3.0 9.0 0.00 0.00 0.00 35 1019.1
20190318212516 74 315 5.0 9.0 0.00 0.00 0.00 37 1019.1
20190318211516 73 315 7.0 11.0 0.00 0.00 0.00 39 1019.2
20190318210519 72 315 6.0 10.0 0.00 0.00 0.00 38 1019.4
20190318205520 71 315 6.0 11.0 0.00 0.00 0.00 42 1019.6
20190318204519 70 315 5.0 10.0 0.00 0.00 0.00 40 1019.8
20190318203519 70 315 5.0 12.0 0.00 0.00 0.00 42 1019.9
20190318202520 70 315 5.0 11.0 0.00 0.00 0.00 43 1020.0
20190318201517 69 315 3.0 8.0 0.00 0.00 0.00 45 1020.2
20190318200519 69 315 6.0 9.0 0.00 0.00 0.00 46 1020.2
20190318195519 69 315 3.0 11.0 0.00 0.00 0.00 45 1020.3
20190318194519 69 337 2.0 6.0 0.00 0.00 0.00 47 1020.4
20190318193519 68 22 2.0 7.0 0.00 0.00 0.00 48 1020.5